Aviation Digital Data Service (ADDS)

Output produced by METARs form (0512 UTC 19 February 2019)
found at http://www.aviationweather.gov/metar/data/
 
Forecast for: OIII (TEHRAN/MEHRABAD , IR)
Text: TAF OIII 182300Z 1900/2006 28015KT 8000 FEW035
Forecast period: 0000 UTC 19 February 2019 to 0600 UTC 20 February 2019
Forecast type: FROM: standard forecast or significant change
Winds: from the W (280 degrees) at 17 MPH (15 knots; 7.7 m/s)
Visibility: 5 miles (8 km)
Ceiling: at least 12,000 feet AGL
Clouds: few clouds at 3500 feet AGL
Weather: no significant weather forecast for this period
Text: TEMPO 1912/1918 29020G30K FEW035CB SCT040 SCT100
Forecast period: 1200 to 1800 UTC 19 February 2019
Forecast type: TEMPORARY: The following changes expected for less than half the time period
Visibility: missing
Ceiling: at least 12,000 feet AGL
Clouds: few clouds at 3500 feet AGL
scattered clouds at 4000 feet AGL
scattered clouds at 10000 feet AGL
Weather: no significant weather forecast for this period